createdAt,value
2022-11-22T00:00:08.427Z,0.00
2022-11-22T00:01:08.369Z,0.00
2022-11-22T00:02:08.399Z,0.00
2022-11-22T00:03:08.245Z,0.00
2022-11-22T00:04:08.188Z,0.00
2022-11-22T00:05:08.144Z,0.00
2022-11-22T00:06:08.069Z,0.00
2022-11-22T00:07:08.048Z,0.00
2022-11-22T00:08:07.953Z,0.00
2022-11-22T00:09:07.908Z,0.00
2022-11-22T00:10:07.843Z,0.00
2022-11-22T00:11:07.780Z,0.00
2022-11-22T00:12:07.736Z,0.00
2022-11-22T00:13:07.665Z,0.00
2022-11-22T00:14:07.612Z,0.00
2022-11-22T00:15:07.563Z,0.00
2022-11-22T00:16:07.480Z,0.00
2022-11-22T00:17:07.428Z,0.00
2022-11-22T00:18:07.365Z,0.00
2022-11-22T00:19:07.329Z,0.00
2022-11-22T00:20:07.267Z,0.00
2022-11-22T00:21:07.210Z,0.00
2022-11-22T00:22:07.136Z,0.00
2022-11-22T00:23:07.070Z,0.00
2022-11-22T00:24:07.035Z,0.00
2022-11-22T00:25:06.959Z,0.00
2022-11-22T00:26:06.900Z,0.00
2022-11-22T00:27:06.854Z,0.00
2022-11-22T00:28:06.781Z,0.00
2022-11-22T00:29:06.737Z,0.00
2022-11-22T00:30:06.677Z,0.00
2022-11-22T00:31:06.606Z,0.00
2022-11-22T00:32:06.545Z,0.00
2022-11-22T00:33:06.491Z,0.00
2022-11-22T00:34:06.451Z,0.00
2022-11-22T00:35:06.372Z,0.00
2022-11-22T00:36:06.311Z,0.00
2022-11-22T00:37:06.265Z,0.00
2022-11-22T00:38:06.197Z,0.00
2022-11-22T00:39:06.149Z,0.00
2022-11-22T00:40:06.079Z,0.00
2022-11-22T00:41:06.033Z,0.00
2022-11-22T00:42:05.976Z,0.00
2022-11-22T00:43:05.899Z,0.00
2022-11-22T00:44:05.834Z,0.00
2022-11-22T00:45:05.780Z,0.00
2022-11-22T00:46:05.723Z,0.00
2022-11-22T00:47:05.681Z,0.00
2022-11-22T00:48:05.606Z,0.00
2022-11-22T00:49:05.539Z,0.00
2022-11-22T00:50:05.487Z,0.00
2022-11-22T00:51:05.429Z,0.00
2022-11-22T00:52:05.384Z,0.00
2022-11-22T00:53:05.311Z,0.00
2022-11-22T00:54:05.263Z,0.00
2022-11-22T00:55:05.191Z,0.00
2022-11-22T00:56:05.130Z,0.00
2022-11-22T00:57:05.093Z,0.00
2022-11-22T00:58:05.026Z,0.00
2022-11-22T00:59:04.972Z,0.00
2022-11-22T01:00:04.901Z,0.00
2022-11-22T01:01:04.873Z,0.00
2022-11-22T01:02:04.800Z,0.00
2022-11-22T01:03:04.725Z,0.00
2022-11-22T01:04:04.666Z,0.00
2022-11-22T01:05:04.646Z,0.00
2022-11-22T01:06:04.539Z,0.00
2022-11-22T01:07:04.520Z,0.00
2022-11-22T01:08:04.443Z,0.00
2022-11-22T01:09:04.363Z,0.00
2022-11-22T01:10:04.311Z,0.00
2022-11-22T01:11:04.244Z,0.00
2022-11-22T01:12:04.193Z,0.00
2022-11-22T01:13:04.151Z,0.00
2022-11-22T01:14:04.074Z,0.00
2022-11-22T01:15:04.015Z,0.00
2022-11-22T01:16:03.961Z,0.00
2022-11-22T01:17:03.907Z,0.00
2022-11-22T01:18:03.849Z,0.00
2022-11-22T01:19:03.774Z,0.00
2022-11-22T01:20:03.717Z,0.00
2022-11-22T01:21:03.658Z,0.00
2022-11-22T01:22:03.598Z,0.00
2022-11-22T01:23:03.555Z,0.00
2022-11-22T01:24:03.484Z,0.00
2022-11-22T01:25:03.439Z,0.00
2022-11-22T01:26:03.374Z,0.00
2022-11-22T01:27:03.305Z,0.00
2022-11-22T01:28:03.270Z,0.00
2022-11-22T01:29:03.205Z,0.00
2022-11-22T01:30:03.134Z,0.00
2022-11-22T01:31:03.075Z,0.00
2022-11-22T01:32:03.019Z,0.00
2022-11-22T01:33:02.958Z,0.00
2022-11-22T01:34:02.902Z,0.00
2022-11-22T01:35:02.883Z,0.00
2022-11-22T01:36:02.775Z,0.00
2022-11-22T01:37:02.719Z,0.00
2022-11-22T01:38:02.665Z,0.00
2022-11-22T01:39:02.630Z,0.00
2022-11-22T01:40:02.557Z,0.00
2022-11-22T01:41:02.483Z,0.00
2022-11-22T01:42:02.428Z,0.00
2022-11-22T01:43:02.392Z,0.00
2022-11-22T01:44:02.320Z,0.00
2022-11-22T01:45:02.266Z,0.00
2022-11-22T01:46:02.191Z,0.00
2022-11-22T01:47:02.136Z,0.00
2022-11-22T01:48:02.123Z,0.00
2022-11-22T01:49:02.043Z,0.00
2022-11-22T01:50:01.987Z,0.00
2022-11-22T01:51:01.917Z,0.00
2022-11-22T01:52:01.839Z,0.00
2022-11-22T01:53:01.780Z,0.00
2022-11-22T01:54:01.737Z,0.00
2022-11-22T01:55:01.667Z,0.00
2022-11-22T01:56:01.598Z,0.00
2022-11-22T01:57:01.563Z,0.00
2022-11-22T01:58:01.482Z,0.00
2022-11-22T01:59:01.444Z,0.00
2022-11-22T02:00:01.369Z,0.00
2022-11-22T02:01:01.323Z,0.00
2022-11-22T02:02:01.254Z,0.00
2022-11-22T02:03:01.186Z,0.00
2022-11-22T02:04:01.149Z,0.00
2022-11-22T02:05:01.073Z,0.00
2022-11-22T02:06:01.039Z,0.00
2022-11-22T02:07:00.980Z,0.00
2022-11-22T02:08:00.899Z,0.00
2022-11-22T02:09:00.837Z,0.00
2022-11-22T02:10:00.777Z,0.00
2022-11-22T02:11:00.720Z,0.00
2022-11-22T02:12:00.682Z,0.00
2022-11-22T02:13:00.601Z,0.00
2022-11-22T02:14:00.539Z,0.00
2022-11-22T02:15:00.485Z,0.00
2022-11-22T02:16:00.422Z,0.00
2022-11-22T02:17:00.382Z,0.00
2022-11-22T02:18:00.313Z,0.00
2022-11-22T02:19:00.254Z,0.00
2022-11-22T02:20:00.216Z,0.00
2022-11-22T02:21:00.133Z,0.00
2022-11-22T02:22:00.102Z,0.00
2022-11-22T02:23:00.015Z,0.00
2022-11-22T02:23:59.957Z,0.00
2022-11-22T02:24:59.902Z,0.00
2022-11-22T02:25:59.837Z,0.00
2022-11-22T02:26:59.785Z,0.00
2022-11-22T02:27:59.733Z,0.00
2022-11-22T02:28:59.661Z,0.00
2022-11-22T02:29:59.605Z,0.00
2022-11-22T02:30:59.563Z,0.00
2022-11-22T02:31:59.522Z,0.00
2022-11-22T02:32:59.441Z,0.00
2022-11-22T02:34:01.758Z,0.00
2022-11-22T02:34:59.319Z,0.00
2022-11-22T02:35:59.266Z,0.00
2022-11-22T02:36:59.195Z,0.00
2022-11-22T02:37:59.147Z,0.00
2022-11-22T02:38:59.074Z,0.00
2022-11-22T02:39:59.019Z,0.00
2022-11-22T02:40:58.964Z,0.00
2022-11-22T02:41:58.901Z,0.00
2022-11-22T02:42:58.838Z,0.00
2022-11-22T02:43:58.788Z,0.00
2022-11-22T02:44:58.725Z,0.00
2022-11-22T02:45:58.676Z,0.00
2022-11-22T02:46:58.608Z,0.00
2022-11-22T02:47:58.551Z,0.00
2022-11-22T02:48:58.490Z,0.00
2022-11-22T02:49:58.423Z,0.00
2022-11-22T02:50:58.379Z,0.00
2022-11-22T02:51:58.309Z,0.00
2022-11-22T02:52:58.252Z,0.00
2022-11-22T02:53:58.190Z,0.00
2022-11-22T02:54:58.138Z,0.00
2022-11-22T02:55:58.087Z,0.00
2022-11-22T02:56:58.015Z,0.00
2022-11-22T02:57:57.959Z,0.00
2022-11-22T02:58:57.919Z,0.00
2022-11-22T02:59:57.843Z,0.00
2022-11-22T03:00:57.875Z,0.00
2022-11-22T03:02:03.040Z,0.00
2022-11-22T03:02:57.671Z,0.00
2022-11-22T03:03:57.604Z,0.00
2022-11-22T03:04:57.560Z,0.00
2022-11-22T03:05:57.500Z,0.00
2022-11-22T03:06:57.431Z,0.00
2022-11-22T03:07:57.367Z,0.00
2022-11-22T03:08:57.319Z,0.00
2022-11-22T03:09:57.263Z,0.00
2022-11-22T03:10:57.209Z,0.00
2022-11-22T03:11:57.144Z,0.00
2022-11-22T03:12:57.072Z,0.00
2022-11-22T03:13:57.013Z,0.00
2022-11-22T03:14:56.960Z,0.00
2022-11-22T03:15:56.910Z,0.00
2022-11-22T03:16:56.835Z,0.00
2022-11-22T03:17:56.777Z,0.00
2022-11-22T03:18:56.739Z,0.00
2022-11-22T03:19:56.660Z,0.00
2022-11-22T03:20:56.601Z,0.00
2022-11-22T03:21:56.564Z,0.00
2022-11-22T03:22:56.507Z,0.00
2022-11-22T03:23:56.446Z,0.00
2022-11-22T03:24:56.372Z,0.00
2022-11-22T03:25:56.309Z,0.00
2022-11-22T03:26:56.271Z,0.00
2022-11-22T03:27:56.198Z,0.00
2022-11-22T03:28:56.131Z,0.00
2022-11-22T03:29:56.071Z,0.00
2022-11-22T03:30:56.010Z,0.00
2022-11-22T03:31:55.956Z,0.00
2022-11-22T03:32:55.904Z,0.00
2022-11-22T03:33:55.837Z,0.00
2022-11-22T03:34:55.774Z,0.00
2022-11-22T03:35:55.730Z,0.00
2022-11-22T03:36:55.661Z,0.00
2022-11-22T03:37:55.599Z,0.00
2022-11-22T03:38:55.537Z,0.00
2022-11-22T03:39:55.495Z,0.00
2022-11-22T03:40:55.438Z,0.00
2022-11-22T03:41:55.368Z,0.00
2022-11-22T03:42:55.301Z,0.00
2022-11-22T03:43:55.248Z,0.00
2022-11-22T03:44:55.190Z,0.00
2022-11-22T03:45:55.144Z,0.00
2022-11-22T03:46:55.085Z,0.00
2022-11-22T03:47:55.008Z,0.00
2022-11-22T03:48:54.953Z,0.00
2022-11-22T03:49:54.886Z,0.00
2022-11-22T03:50:54.848Z,0.00
2022-11-22T03:51:54.770Z,0.00
2022-11-22T03:52:54.725Z,0.00
2022-11-22T03:53:54.650Z,0.00
2022-11-22T03:54:54.600Z,0.00
2022-11-22T03:55:54.535Z,0.00
2022-11-22T03:56:54.494Z,0.00
2022-11-22T03:57:54.423Z,0.00
2022-11-22T03:58:54.357Z,0.00
2022-11-22T03:59:54.295Z,0.00
2022-11-22T04:00:54.237Z,0.00
2022-11-22T04:01:54.328Z,0.00
2022-11-22T04:02:54.121Z,0.00
2022-11-22T04:03:54.061Z,0.00
2022-11-22T04:04:54.010Z,0.00
2022-11-22T04:05:53.945Z,0.00
2022-11-22T04:06:53.897Z,0.00
2022-11-22T04:07:53.893Z,0.00
2022-11-22T04:08:53.808Z,0.00
2022-11-22T04:09:53.707Z,0.00
2022-11-22T04:10:53.642Z,0.00
2022-11-22T04:11:53.599Z,0.00
2022-11-22T04:12:53.526Z,0.00
2022-11-22T04:13:53.467Z,0.00
2022-11-22T04:14:53.408Z,0.00
2022-11-22T04:15:53.360Z,0.00
2022-11-22T04:16:53.288Z,0.00
2022-11-22T04:17:53.249Z,0.00
2022-11-22T04:18:53.170Z,0.00
2022-11-22T04:19:53.117Z,0.00
2022-11-22T04:20:53.064Z,0.00
2022-11-22T04:21:53.013Z,0.00
2022-11-22T04:22:52.934Z,0.00
2022-11-22T04:23:52.922Z,0.00
2022-11-22T04:24:52.821Z,0.00
2022-11-22T04:25:52.777Z,0.00
2022-11-22T04:26:52.701Z,0.00
2022-11-22T04:27:52.659Z,0.00
2022-11-22T04:29:09.207Z,0.00
2022-11-22T04:29:52.519Z,0.00
2022-11-22T04:30:52.487Z,0.00
2022-11-22T04:31:52.398Z,0.00
2022-11-22T04:32:52.358Z,0.00
2022-11-22T04:33:52.283Z,0.00
2022-11-22T04:34:52.225Z,0.00
2022-11-22T04:35:52.163Z,0.00
2022-11-22T04:36:52.105Z,0.00
2022-11-22T04:37:52.061Z,0.00
2022-11-22T04:38:51.995Z,0.00
2022-11-22T04:39:51.940Z,0.00
2022-11-22T04:40:51.871Z,0.00
2022-11-22T04:41:51.809Z,0.00
2022-11-22T04:42:51.767Z,0.00
2022-11-22T04:43:51.692Z,0.00
2022-11-22T04:44:51.648Z,0.00
2022-11-22T04:45:51.573Z,0.00
2022-11-22T04:46:51.513Z,0.00
2022-11-22T04:47:51.469Z,0.00
2022-11-22T04:48:51.395Z,0.00
2022-11-22T04:49:51.333Z,0.00
2022-11-22T04:50:51.279Z,0.00
2022-11-22T04:51:51.231Z,0.00
2022-11-22T04:52:51.156Z,0.00
2022-11-22T04:54:00.380Z,0.00
2022-11-22T04:54:51.046Z,0.00
2022-11-22T04:55:50.982Z,0.00
2022-11-22T04:56:50.936Z,0.00
2022-11-22T04:57:55.963Z,0.00
2022-11-22T04:58:50.811Z,0.00
2022-11-22T04:59:50.749Z,0.00
2022-11-22T05:00:50.754Z,0.00
2022-11-22T05:01:50.631Z,0.00
2022-11-22T05:02:50.576Z,0.00
2022-11-22T05:03:50.533Z,0.00
2022-11-22T05:04:50.996Z,0.00
2022-11-22T05:05:50.390Z,0.00
2022-11-22T05:06:50.352Z,0.00
2022-11-22T05:07:50.376Z,0.00
2022-11-22T05:08:50.218Z,0.00
2022-11-22T05:09:50.167Z,0.00
2022-11-22T05:10:50.108Z,0.00
2022-11-22T05:11:50.047Z,0.00
2022-11-22T05:12:49.975Z,0.00
2022-11-22T05:13:49.917Z,0.00
2022-11-22T05:14:49.881Z,0.00
2022-11-22T05:15:49.807Z,0.00
2022-11-22T05:16:49.743Z,0.00
2022-11-22T05:17:49.679Z,0.00
2022-11-22T05:18:49.644Z,0.00
2022-11-22T05:19:49.563Z,0.00
2022-11-22T05:20:49.508Z,0.00
2022-11-22T05:21:49.448Z,0.00
2022-11-22T05:22:49.389Z,0.00
2022-11-22T05:23:49.356Z,0.00
2022-11-22T05:24:49.283Z,0.00
2022-11-22T05:25:49.218Z,0.00
2022-11-22T05:26:49.164Z,0.00
2022-11-22T05:27:49.096Z,0.00
2022-11-22T05:28:49.034Z,0.00
2022-11-22T05:29:48.995Z,0.00
2022-11-22T05:30:48.912Z,0.00
2022-11-22T05:31:51.475Z,0.00
2022-11-22T05:32:48.794Z,0.00
2022-11-22T05:33:48.734Z,0.00
2022-11-22T05:34:48.685Z,0.00
2022-11-22T05:35:48.630Z,0.00
2022-11-22T05:36:48.564Z,0.00
2022-11-22T05:37:48.515Z,0.00
2022-11-22T05:38:48.448Z,0.00
2022-11-22T05:39:48.384Z,0.00
2022-11-22T05:40:48.321Z,0.00
2022-11-22T05:41:48.266Z,0.00
2022-11-22T05:42:48.203Z,0.00
2022-11-22T05:43:48.161Z,0.00
2022-11-22T05:44:48.108Z,0.00
2022-11-22T05:45:48.032Z,0.00
2022-11-22T05:46:47.967Z,0.00
2022-11-22T05:47:47.916Z,0.00
2022-11-22T05:48:47.854Z,0.00
2022-11-22T05:49:47.803Z,0.00
2022-11-22T05:50:47.752Z,0.00
2022-11-22T05:51:47.672Z,0.00
2022-11-22T05:52:47.631Z,0.00
2022-11-22T05:53:47.557Z,0.00
2022-11-22T05:54:47.503Z,0.00
2022-11-22T05:55:47.455Z,0.00
2022-11-22T05:56:47.382Z,0.00
2022-11-22T05:57:47.321Z,0.00
2022-11-22T05:58:47.260Z,0.00
2022-11-22T05:59:47.202Z,0.00
2022-11-22T06:00:47.166Z,0.00
2022-11-22T06:01:47.110Z,0.00
2022-11-22T06:02:47.080Z,0.00
2022-11-22T06:03:46.971Z,0.00
2022-11-22T06:04:46.912Z,0.00
2022-11-22T06:05:46.872Z,0.00
2022-11-22T06:06:46.791Z,0.00
2022-11-22T06:07:46.822Z,0.00
2022-11-22T06:08:46.675Z,0.00
2022-11-22T06:09:46.612Z,0.00
2022-11-22T06:10:46.569Z,0.00
2022-11-22T06:11:46.494Z,0.00
2022-11-22T06:12:46.434Z,0.00
2022-11-22T06:13:46.397Z,0.00
2022-11-22T06:14:46.316Z,0.00
2022-11-22T06:15:46.258Z,0.00
2022-11-22T06:16:46.217Z,0.00
2022-11-22T06:17:46.146Z,0.00
2022-11-22T06:18:46.091Z,0.00
2022-11-22T06:19:46.024Z,0.00
2022-11-22T06:20:45.974Z,0.00
2022-11-22T06:21:45.905Z,0.00
2022-11-22T06:22:45.868Z,0.00
2022-11-22T06:23:45.791Z,0.00
2022-11-22T06:24:45.744Z,0.00
2022-11-22T06:25:45.672Z,0.00
2022-11-22T06:26:45.613Z,0.00
2022-11-22T06:27:45.569Z,0.00
2022-11-22T06:28:46.337Z,0.00
2022-11-22T06:29:45.438Z,0.00
2022-11-22T06:30:45.374Z,0.00
2022-11-22T06:31:45.317Z,0.00
2022-11-22T06:32:45.273Z,0.00
2022-11-22T06:33:45.208Z,0.00
2022-11-22T06:34:45.145Z,0.00
2022-11-22T06:35:45.085Z,0.00
2022-11-22T06:36:45.020Z,0.00
2022-11-22T06:37:44.985Z,0.00
2022-11-22T06:38:44.924Z,0.00
2022-11-22T06:39:44.859Z,0.00
2022-11-22T06:40:44.805Z,0.00
2022-11-22T06:41:44.729Z,0.00
2022-11-22T06:42:44.672Z,0.00
2022-11-22T06:43:48.627Z,0.00
2022-11-22T06:44:44.549Z,0.00
2022-11-22T06:45:44.495Z,0.00
2022-11-22T06:46:44.439Z,0.00
2022-11-22T06:47:44.387Z,0.00
2022-11-22T06:48:44.317Z,0.00
2022-11-22T06:49:44.256Z,0.00
2022-11-22T06:50:44.213Z,0.00
2022-11-22T06:51:44.142Z,0.00
2022-11-22T06:52:44.096Z,0.00
2022-11-22T06:53:48.558Z,0.00
2022-11-22T06:54:43.966Z,0.00
2022-11-22T06:55:54.417Z,0.00
2022-11-22T06:56:43.860Z,0.00
2022-11-22T06:57:43.795Z,0.00
2022-11-22T06:58:43.725Z,0.00
2022-11-22T06:59:43.688Z,0.00
2022-11-22T07:00:43.614Z,0.00
2022-11-22T07:01:43.603Z,0.00
2022-11-22T07:02:43.491Z,0.00
2022-11-22T07:03:43.450Z,0.00
2022-11-22T07:05:02.632Z,0.00
2022-11-22T07:05:43.314Z,5.63
2022-11-22T07:06:43.259Z,5.63
2022-11-22T07:07:43.273Z,5.63
2022-11-22T07:08:43.145Z,0.00
2022-11-22T07:09:43.090Z,0.00
2022-11-22T07:10:43.024Z,0.00
2022-11-22T07:11:42.974Z,0.00
2022-11-22T07:12:42.903Z,0.00
2022-11-22T07:13:42.850Z,0.00
2022-11-22T07:14:42.827Z,0.00
2022-11-22T07:15:42.726Z,0.00
2022-11-22T07:16:42.667Z,5.63
2022-11-22T07:17:42.615Z,5.63
2022-11-22T07:18:42.549Z,5.63
2022-11-22T07:19:42.511Z,5.63
2022-11-22T07:20:42.431Z,5.63
2022-11-22T07:21:42.370Z,5.63
2022-11-22T07:22:42.317Z,5.63
2022-11-22T07:23:42.271Z,5.63
2022-11-22T07:24:42.209Z,5.63
2022-11-22T07:25:42.155Z,5.63
2022-11-22T07:26:42.081Z,0.00
2022-11-22T07:27:42.041Z,0.00
2022-11-22T07:28:41.963Z,0.00
2022-11-22T07:29:41.933Z,0.00
2022-11-22T07:30:44.254Z,0.00
2022-11-22T07:31:41.821Z,0.00
2022-11-22T07:32:41.723Z,5.63
2022-11-22T07:33:41.669Z,5.63
2022-11-22T07:34:41.633Z,0.00
2022-11-22T07:35:41.549Z,0.00
2022-11-22T07:36:41.497Z,0.00
2022-11-22T07:37:41.435Z,5.63
2022-11-22T07:38:41.369Z,5.63
2022-11-22T07:39:41.343Z,5.63
2022-11-22T07:40:41.255Z,5.63
2022-11-22T07:41:41.208Z,11.25
2022-11-22T07:42:41.144Z,11.25
2022-11-22T07:43:41.074Z,11.25
2022-11-22T07:44:41.030Z,5.63
2022-11-22T07:45:40.967Z,5.63
2022-11-22T07:46:40.909Z,5.63
2022-11-22T07:47:40.843Z,11.25
2022-11-22T07:48:40.797Z,11.25
2022-11-22T07:49:40.745Z,11.25
2022-11-22T07:50:40.665Z,11.25
2022-11-22T07:51:40.610Z,11.25
2022-11-22T07:52:40.584Z,11.25
2022-11-22T07:53:40.495Z,16.88
2022-11-22T07:54:40.431Z,16.88
2022-11-22T07:55:40.385Z,16.88
2022-11-22T07:56:40.315Z,16.88
2022-11-22T07:57:40.267Z,16.88
2022-11-22T07:58:40.214Z,16.88
2022-11-22T07:59:40.142Z,16.88
2022-11-22T08:00:40.084Z,16.88
2022-11-22T08:01:40.057Z,11.25
2022-11-22T08:02:39.980Z,11.25
2022-11-22T08:03:39.900Z,11.25
2022-11-22T08:04:39.844Z,11.25
2022-11-22T08:05:39.905Z,11.25
2022-11-22T08:06:39.727Z,11.25
2022-11-22T08:07:39.767Z,11.25
2022-11-22T08:08:39.629Z,16.88
2022-11-22T08:09:39.554Z,16.88
2022-11-22T08:10:39.496Z,22.50
2022-11-22T08:11:39.436Z,16.88
2022-11-22T08:12:39.377Z,16.88
2022-11-22T08:13:39.328Z,16.88
2022-11-22T08:14:39.267Z,16.88
2022-11-22T08:15:39.211Z,16.88
2022-11-22T08:16:39.146Z,11.25
2022-11-22T08:17:39.078Z,11.25
2022-11-22T08:18:39.025Z,11.25
2022-11-22T08:19:38.966Z,11.25
2022-11-22T08:20:38.923Z,16.88
2022-11-22T08:21:38.946Z,16.88
2022-11-22T08:22:38.783Z,16.88
2022-11-22T08:23:38.745Z,22.50
2022-11-22T08:24:38.674Z,22.50
2022-11-22T08:25:38.628Z,22.50
2022-11-22T08:26:38.549Z,22.50
2022-11-22T08:27:38.492Z,22.50
2022-11-22T08:28:38.465Z,22.50
2022-11-22T08:29:38.394Z,22.50
2022-11-22T08:30:38.321Z,22.50
2022-11-22T08:31:38.260Z,22.50
2022-11-22T08:32:38.213Z,22.50
2022-11-22T08:33:38.161Z,16.88
2022-11-22T08:34:39.165Z,16.88
2022-11-22T08:35:38.021Z,16.88
2022-11-22T08:36:37.963Z,16.88
2022-11-22T08:37:38.002Z,16.88
2022-11-22T08:38:37.864Z,16.88
2022-11-22T08:39:37.788Z,22.50
2022-11-22T08:40:40.966Z,22.50
2022-11-22T08:41:37.671Z,22.50
2022-11-22T08:42:37.617Z,22.50
2022-11-22T08:43:37.573Z,22.50
2022-11-22T08:44:37.493Z,22.50
2022-11-22T08:45:37.442Z,22.50
2022-11-22T08:46:37.382Z,22.50
2022-11-22T08:47:37.318Z,28.13
2022-11-22T08:48:37.276Z,28.13
2022-11-22T08:49:37.209Z,33.75
2022-11-22T08:50:37.158Z,33.75
2022-11-22T08:51:37.082Z,39.38
2022-11-22T08:52:37.030Z,39.38
2022-11-22T08:53:37.070Z,45.00
2022-11-22T08:54:38.156Z,45.00
2022-11-22T08:55:36.861Z,45.00
2022-11-22T08:56:36.794Z,45.00
2022-11-22T08:57:36.731Z,45.00
2022-11-22T08:58:36.674Z,50.63
2022-11-22T08:59:36.653Z,56.25
2022-11-22T09:00:36.604Z,56.25
2022-11-22T09:01:36.558Z,56.25
2022-11-22T09:02:36.440Z,56.25
2022-11-22T09:03:36.391Z,56.25
2022-11-22T09:04:36.320Z,56.25
2022-11-22T09:05:36.588Z,61.88
2022-11-22T09:08:36.281Z,78.75
2022-11-22T09:09:37.730Z,90.00
2022-11-22T09:10:35.970Z,90.00
2022-11-22T09:11:35.930Z,101.25
2022-11-22T09:12:35.858Z,101.25
2022-11-22T09:13:35.803Z,90.00
2022-11-22T09:14:35.739Z,84.38
2022-11-22T09:15:35.689Z,84.38
2022-11-22T09:16:35.640Z,90.00
2022-11-22T09:17:35.563Z,90.00
2022-11-22T09:18:35.511Z,90.00
2022-11-22T09:19:35.456Z,84.38
2022-11-22T09:20:35.388Z,78.75
2022-11-22T09:21:35.353Z,73.13
2022-11-22T09:22:35.271Z,67.50
2022-11-22T09:23:35.220Z,67.50
2022-11-22T09:24:35.157Z,67.50
2022-11-22T09:25:35.254Z,78.75
2022-11-22T09:26:35.064Z,78.75
2022-11-22T09:27:34.987Z,78.75
2022-11-22T09:28:34.944Z,61.88
2022-11-22T09:29:34.873Z,67.50
2022-11-22T09:30:35.367Z,106.88
2022-11-22T09:31:34.784Z,129.38
2022-11-22T09:32:34.763Z,73.13
2022-11-22T09:33:34.642Z,67.50
2022-11-22T09:34:34.599Z,73.13
2022-11-22T09:35:34.529Z,73.13
2022-11-22T09:36:34.466Z,106.88
2022-11-22T09:37:34.412Z,95.63
2022-11-22T09:38:34.344Z,118.13
2022-11-22T09:39:34.310Z,135.00
2022-11-22T09:40:34.236Z,174.38
2022-11-22T09:41:34.265Z,135.00
2022-11-22T09:42:34.132Z,101.25
2022-11-22T09:43:34.055Z,129.38
2022-11-22T09:44:34.006Z,174.38
2022-11-22T09:45:33.939Z,202.50
2022-11-22T09:46:33.883Z,180.00
2022-11-22T09:47:33.841Z,95.63
2022-11-22T09:48:33.789Z,78.75
2022-11-22T09:49:34.099Z,73.13
2022-11-22T09:50:33.658Z,73.13
2022-11-22T09:51:33.598Z,67.50
2022-11-22T09:52:33.545Z,78.75
2022-11-22T09:53:33.483Z,84.38
2022-11-22T09:54:33.438Z,123.75
2022-11-22T09:55:33.377Z,106.88
2022-11-22T09:56:33.302Z,151.88
2022-11-22T09:57:33.259Z,118.13
2022-11-22T09:58:33.191Z,101.25
2022-11-22T09:59:33.169Z,95.63
2022-11-22T10:00:33.094Z,112.50
2022-11-22T10:01:33.072Z,112.50
2022-11-22T10:02:43.534Z,135.00
2022-11-22T10:03:32.927Z,168.75
2022-11-22T10:04:32.848Z,140.63
2022-11-22T10:05:32.794Z,163.13
2022-11-22T10:06:32.733Z,219.38
2022-11-22T10:07:32.758Z,219.38
2022-11-22T10:08:32.629Z,140.63
2022-11-22T10:09:33.055Z,129.38
2022-11-22T10:10:32.503Z,151.88
2022-11-22T10:11:36.366Z,157.50
2022-11-22T10:12:32.384Z,140.63
2022-11-22T10:13:32.430Z,157.50
2022-11-22T10:14:32.292Z,168.75
2022-11-22T10:15:32.220Z,129.38
2022-11-22T10:16:32.160Z,112.50
2022-11-22T10:17:32.113Z,135.00
2022-11-22T10:18:32.048Z,129.38
2022-11-22T10:19:32.221Z,118.13
2022-11-22T10:20:31.930Z,123.75
2022-11-22T10:21:31.877Z,118.13
2022-11-22T10:22:31.841Z,112.50
2022-11-22T10:23:31.757Z,101.25
2022-11-22T10:24:31.699Z,95.63
2022-11-22T10:25:31.644Z,95.63
2022-11-22T10:26:31.597Z,101.25
2022-11-22T10:27:31.530Z,106.88
2022-11-22T10:28:31.479Z,101.25
2022-11-22T10:29:31.915Z,90.00
2022-11-22T10:30:31.376Z,78.75
2022-11-22T10:31:31.299Z,84.38
2022-11-22T10:32:31.240Z,90.00
2022-11-22T10:33:31.185Z,101.25
2022-11-22T10:34:31.145Z,106.88
2022-11-22T10:35:31.071Z,106.88
2022-11-22T10:36:31.013Z,101.25
2022-11-22T10:37:30.955Z,101.25
2022-11-22T10:38:30.904Z,90.00
2022-11-22T10:39:34.395Z,84.38
2022-11-22T10:40:30.792Z,84.38
2022-11-22T10:41:30.750Z,90.00
2022-11-22T10:42:30.676Z,90.00
2022-11-22T10:43:30.617Z,90.00
2022-11-22T10:44:30.560Z,78.75
2022-11-22T10:45:30.499Z,78.75
2022-11-22T10:46:30.462Z,90.00
2022-11-22T10:47:34.371Z,101.25
2022-11-22T10:48:30.328Z,112.50
2022-11-22T10:49:30.538Z,118.13
2022-11-22T10:50:30.294Z,123.75
2022-11-22T10:51:30.156Z,118.13
2022-11-22T10:52:30.096Z,118.13
2022-11-22T10:53:30.061Z,123.75
2022-11-22T10:54:29.981Z,135.00
2022-11-22T10:55:29.942Z,135.00
2022-11-22T10:56:29.871Z,140.63
2022-11-22T10:57:29.835Z,146.25
2022-11-22T10:58:29.753Z,146.25
2022-11-22T10:59:30.002Z,151.88
2022-11-22T11:00:29.660Z,157.50
2022-11-22T11:01:29.798Z,163.13
2022-11-22T11:02:29.535Z,168.75
2022-11-22T11:03:29.473Z,163.13
2022-11-22T11:04:29.424Z,151.88
2022-11-22T11:05:29.360Z,163.13
2022-11-22T11:06:49.888Z,146.25
2022-11-22T11:07:29.332Z,146.25
2022-11-22T11:08:54.192Z,140.63
2022-11-22T11:10:34.230Z,123.75
2022-11-22T11:11:29.016Z,112.50
2022-11-22T11:12:28.957Z,106.88
2022-11-22T11:13:28.922Z,106.88
2022-11-22T11:14:29.370Z,106.88
2022-11-22T11:15:28.801Z,106.88
2022-11-22T11:16:28.736Z,101.25
2022-11-22T11:17:28.781Z,90.00
2022-11-22T11:18:28.615Z,84.38
2022-11-22T11:19:28.572Z,84.38
2022-11-22T11:20:28.496Z,78.75
2022-11-22T11:21:28.441Z,84.38
2022-11-22T11:22:58.473Z,78.75
2022-11-22T11:23:28.339Z,73.13
2022-11-22T11:24:28.706Z,73.13
2022-11-22T11:25:28.221Z,67.50
2022-11-22T11:26:28.171Z,73.13
2022-11-22T11:27:28.143Z,90.00
2022-11-22T11:28:28.045Z,90.00
2022-11-22T11:29:27.982Z,90.00
2022-11-22T11:30:27.946Z,90.00
2022-11-22T11:31:27.874Z,90.00
2022-11-22T11:32:27.816Z,84.38
2022-11-22T11:33:27.848Z,84.38
2022-11-22T11:34:28.043Z,78.75
2022-11-22T11:35:27.680Z,67.50
2022-11-22T11:36:27.607Z,67.50
2022-11-22T11:37:27.527Z,56.25
2022-11-22T11:38:27.474Z,56.25
2022-11-22T11:39:27.727Z,50.63
2022-11-22T11:40:27.351Z,50.63
2022-11-22T11:41:27.306Z,45.00
2022-11-22T11:42:27.239Z,45.00
2022-11-22T11:43:27.188Z,45.00
2022-11-22T11:44:27.494Z,45.00
2022-11-22T11:45:27.087Z,45.00
2022-11-22T11:46:27.010Z,45.00
2022-11-22T11:47:26.960Z,45.00
2022-11-22T11:48:26.891Z,45.00
2022-11-22T11:49:26.942Z,45.00
2022-11-22T11:50:26.785Z,45.00
2022-11-22T11:51:26.740Z,50.63
2022-11-22T11:52:26.664Z,50.63
2022-11-22T11:53:26.606Z,56.25
2022-11-22T11:54:26.554Z,61.88
2022-11-22T11:55:26.489Z,67.50
2022-11-22T11:56:26.452Z,67.50
2022-11-22T11:57:26.397Z,73.13
2022-11-22T11:58:26.329Z,67.50
2022-11-22T11:59:26.295Z,61.88
2022-11-22T12:00:26.215Z,61.88
2022-11-22T12:01:26.186Z,61.88
2022-11-22T12:02:26.793Z,61.88
2022-11-22T12:03:26.055Z,67.50
2022-11-22T12:04:26.013Z,78.75
2022-11-22T12:05:26.035Z,78.75
2022-11-22T12:06:25.884Z,90.00
2022-11-22T12:07:25.883Z,112.50
2022-11-22T12:08:25.762Z,118.13
2022-11-22T12:09:25.693Z,185.63
2022-11-22T12:10:25.669Z,185.63
2022-11-22T12:11:25.595Z,168.75
2022-11-22T12:12:25.534Z,185.63
2022-11-22T12:13:25.467Z,219.38
2022-11-22T12:14:27.892Z,213.75
2022-11-22T12:15:25.382Z,219.38
2022-11-22T12:16:25.362Z,196.88
2022-11-22T12:17:25.236Z,208.13
2022-11-22T12:18:25.218Z,191.25
2022-11-22T12:19:25.361Z,213.75
2022-11-22T12:20:25.091Z,208.13
2022-11-22T12:21:25.090Z,163.13
2022-11-22T12:22:48.431Z,180.00
2022-11-22T12:23:24.908Z,180.00
2022-11-22T12:25:32.450Z,129.38
2022-11-22T12:26:24.718Z,135.00
2022-11-22T12:27:24.678Z,129.38
2022-11-22T12:28:24.599Z,129.38
2022-11-22T12:29:24.558Z,123.75
2022-11-22T12:30:24.487Z,106.88
2022-11-22T12:31:24.432Z,95.63
2022-11-22T12:32:24.364Z,84.38
2022-11-22T12:33:24.337Z,84.38
2022-11-22T12:34:24.265Z,78.75
2022-11-22T12:35:24.203Z,78.75
2022-11-22T12:36:27.081Z,67.50
2022-11-22T12:37:24.186Z,56.25
2022-11-22T12:38:24.022Z,50.63
2022-11-22T12:39:23.973Z,45.00
2022-11-22T12:40:23.914Z,39.38
2022-11-22T12:41:23.866Z,39.38
2022-11-22T12:42:23.812Z,33.75
2022-11-22T12:43:23.744Z,33.75
2022-11-22T12:44:23.693Z,33.75
2022-11-22T12:45:23.628Z,33.75
2022-11-22T12:46:26.789Z,39.38
2022-11-22T12:47:23.511Z,45.00
2022-11-22T12:48:24.441Z,50.63
2022-11-22T12:49:23.395Z,50.63
2022-11-22T12:50:23.335Z,61.88
2022-11-22T12:51:23.287Z,61.88
2022-11-22T12:52:23.227Z,67.50
2022-11-22T12:53:23.280Z,73.13
2022-11-22T12:54:23.117Z,84.38
2022-11-22T12:55:23.050Z,90.00
2022-11-22T12:56:23.853Z,95.63
2022-11-22T12:57:22.933Z,106.88
2022-11-22T12:58:22.898Z,118.13
2022-11-22T12:59:22.843Z,118.13
2022-11-22T13:00:22.785Z,118.13
2022-11-22T13:01:22.767Z,123.75
2022-11-22T13:02:22.654Z,118.13
2022-11-22T13:03:22.594Z,118.13
2022-11-22T13:04:22.554Z,118.13
2022-11-22T13:05:22.474Z,118.13
2022-11-22T13:06:22.423Z,112.50
2022-11-22T13:07:22.436Z,112.50